CDT,Max TemperatureF,Mean TemperatureF,Min TemperatureF,Max Dew PointF,MeanDew PointF,Min DewpointF,Max Humidity, Mean Humidity, Min Humidity, Max Sea Level PressureIn, Mean Sea Level PressureIn, Min Sea Level PressureIn, Max VisibilityMiles, Mean VisibilityMiles, Min VisibilityMiles, Max Wind SpeedMPH, Mean Wind SpeedMPH, Max Gust SpeedMPH,PrecipitationIn, CloudCover, Events, WindDirDegrees
2013-3-1,24,17,10,16,12,9,92,78,59,30.38,30.35,30.27,10,10,7,9,4,,0.00,2,,13
2013-3-2,24,14,3,12,7,0,92,67,42,30.35,30.22,30.07,10,8,0,15,6,18,0.00,5,Fog,146
2013-3-3,30,24,17,19,13,10,79,64,47,30.06,29.93,29.84,10,10,10,24,14,30,0.00,4,,132
2013-3-4,26,24,23,21,20,16,86,82,64,29.95,29.87,29.81,10,5,1,23,18,30,0.00,8,Snow,130
2013-3-5,26,22,19,21,19,16,93,85,74,30.36,30.17,29.94,10,7,1,22,11,30,0.02,6,Snow,360
2013-3-6,32,22,12,16,14,10,93,83,51,30.42,30.36,30.29,10,9,4,10,6,,0.00,5,Snow,342
2013-3-7,28,20,12,18,13,9,92,78,59,30.33,30.24,30.15,10,9,2,22,11,28,0.00,1,,137
2013-3-8,32,26,19,28,21,16,93,84,69,30.25,30.17,30.00,10,5,1,15,8,,0.18,5,Snow,143
2013-3-9,33,28,24,34,30,19,100,93,74,30.00,29.83,29.72,7,2,0,25,7,32,0.26,8,Fog-Rain-Snow,34
2013-3-10,24,18,12,21,15,7,93,84,74,30.13,30.05,29.93,10,8,4,26,17,36,0.00,6,,356
2013-3-11,19,10,0,16,7,-6,86,78,68,30.03,29.89,29.82,10,10,3,12,5,,0.00,3,Snow,313
2013-3-12,23,18,12,16,14,9,93,83,74,30.28,30.07,29.84,10,7,2,25,11,36,0.00,5,Snow,338
2013-3-13,24,12,0,19,7,-6,92,81,73,30.37,30.29,30.11,10,10,10,17,6,,0.00,2,,170
2013-3-14,30,26,23,27,22,19,100,83,74,30.11,30.06,30.01,10,8,4,18,10,22,0.00,2,Snow,155
2013-3-15,28,24,21,25,21,18,93,85,74,30.04,29.96,29.86,10,6,0,14,8,20,0.15,7,Snow,34
2013-3-16,19,5,-9,16,-3,-15,86,79,67,30.28,30.19,30.00,10,10,4,13,8,,0.00,1,Snow,336
2013-3-17,24,9,-5,19,4,-9,93,77,62,30.29,30.01,29.63,10,7,0,30,11,37,0.00,6,Snow,125
2013-3-18,32,18,3,30,13,0,100,89,78,29.94,29.66,29.39,10,2,0,37,25,45,0.01,8,Snow,291
2013-3-19,12,2,-7,0,-4,-13,85,72,57,30.30,30.14,29.95,10,10,10,21,14,25,0.00,1,,321
2013-3-20,12,2,-7,3,-4,-11,85,74,62,30.32,30.26,30.17,10,10,10,20,12,24,0.00,0,,326
2013-3-21,15,6,-4,9,0,-8,85,75,62,30.16,30.10,30.06,10,10,10,8,3,,0.00,0,,8
2013-3-22,17,8,0,10,4,-4,92,81,73,30.12,30.08,30.06,10,10,10,8,2,,0.00,0,,345
2013-3-23,21,14,6,16,10,1,93,83,73,30.18,30.15,30.10,10,10,10,13,5,,0.00,2,,322
2013-3-24,32,21,10,21,15,9,93,79,47,30.16,30.11,30.07,10,9,2,21,9,26,0.00,5,Snow,354
2013-3-25,26,20,15,19,17,10,93,79,68,30.31,30.24,30.16,10,10,10,21,13,28,0.00,4,Snow,348
2013-3-26,24,14,3,18,10,1,100,82,69,30.34,30.31,30.26,10,10,5,10,6,,0.00,0,,333
2013-3-27,35,22,10,23,16,9,93,70,52,30.31,30.29,30.27,10,10,0,13,6,17,0.00,1,Fog,126
2013-3-28,39,32,26,27,24,18,75,68,61,30.28,30.24,30.20,10,10,10,14,10,17,0.00,2,,133
2013-3-29,42,34,26,36,30,25,93,79,66,30.22,30.11,29.91,10,8,4,14,7,,0.00,2,Thunderstorm,132
2013-3-30,42,36,30,36,32,30,100,93,76,29.94,29.92,29.87,10,3,0,15,9,,0.00,6,Fog-Rain-Thunderstorm,326
2013-3-31,33,24,15,30,19,10,100,79,64,30.20,30.00,29.83,10,9,2,28,16,38,0.00,4,,332